sensor_id;sensor_type;location;lat;lon;timestamp;P1;durP1;ratioP1;P2;durP2;ratioP2
8007;SDS011;4049;49.468;11.200;2023-02-07T00:00:22;23.37;;;9.80;;
8007;SDS011;4049;49.468;11.200;2023-02-07T00:02:50;21.27;;;10.00;;
8007;SDS011;4049;49.468;11.200;2023-02-07T00:05:19;21.70;;;10.17;;
8007;SDS011;4049;49.468;11.200;2023-02-07T00:07:46;18.17;;;8.93;;
8007;SDS011;4049;49.468;11.200;2023-02-07T00:10:13;16.47;;;9.00;;
8007;SDS011;4049;49.468;11.200;2023-02-07T00:12:40;18.33;;;8.73;;
8007;SDS011;4049;49.468;11.200;2023-02-07T00:15:09;16.80;;;9.70;;
8007;SDS011;4049;49.468;11.200;2023-02-07T00:17:36;20.83;;;9.00;;
8007;SDS011;4049;49.468;11.200;2023-02-07T00:20:03;18.00;;;9.53;;
8007;SDS011;4049;49.468;11.200;2023-02-07T00:22:31;20.47;;;8.70;;
8007;SDS011;4049;49.468;11.200;2023-02-07T00:24:58;19.50;;;9.43;;
8007;SDS011;4049;49.468;11.200;2023-02-07T00:27:25;18.57;;;9.73;;
8007;SDS011;4049;49.468;11.200;2023-02-07T00:29:51;19.13;;;10.13;;
8007;SDS011;4049;49.468;11.200;2023-02-07T00:32:20;15.90;;;9.47;;
8007;SDS011;4049;49.468;11.200;2023-02-07T00:34:46;20.87;;;9.60;;
8007;SDS011;4049;49.468;11.200;2023-02-07T00:37:14;18.23;;;9.07;;
8007;SDS011;4049;49.468;11.200;2023-02-07T00:39:41;16.77;;;8.80;;
8007;SDS011;4049;49.468;11.200;2023-02-07T00:42:08;18.13;;;9.33;;
8007;SDS011;4049;49.468;11.200;2023-02-07T00:44:35;16.47;;;8.43;;
8007;SDS011;4049;49.468;11.200;2023-02-07T00:47:01;23.97;;;9.67;;
8007;SDS011;4049;49.468;11.200;2023-02-07T00:49:30;20.20;;;10.37;;
8007;SDS011;4049;49.468;11.200;2023-02-07T00:51:56;17.17;;;9.57;;
8007;SDS011;4049;49.468;11.200;2023-02-07T00:54:23;22.53;;;9.37;;
8007;SDS011;4049;49.468;11.200;2023-02-07T00:56:50;17.47;;;9.73;;
8007;SDS011;4049;49.468;11.200;2023-02-07T00:59:17;19.30;;;9.27;;
8007;SDS011;4049;49.468;11.200;2023-02-07T01:01:44;19.67;;;10.00;;
8007;SDS011;4049;49.468;11.200;2023-02-07T01:04:10;20.03;;;10.07;;
8007;SDS011;4049;49.468;11.200;2023-02-07T01:06:39;18.60;;;9.33;;
8007;SDS011;4049;49.468;11.200;2023-02-07T01:09:05;16.90;;;9.20;;
8007;SDS011;4049;49.468;11.200;2023-02-07T01:11:32;19.10;;;9.67;;
8007;SDS011;4049;49.468;11.200;2023-02-07T01:13:59;19.07;;;9.23;;
8007;SDS011;4049;49.468;11.200;2023-02-07T01:16:28;19.57;;;9.43;;
8007;SDS011;4049;49.468;11.200;2023-02-07T01:18:56;17.03;;;9.10;;
8007;SDS011;4049;49.468;11.200;2023-02-07T01:21:25;19.30;;;10.23;;
8007;SDS011;4049;49.468;11.200;2023-02-07T01:23:54;19.90;;;9.90;;
8007;SDS011;4049;49.468;11.200;2023-02-07T01:26:21;21.40;;;10.50;;
8007;SDS011;4049;49.468;11.200;2023-02-07T01:28:48;20.60;;;10.20;;
8007;SDS011;4049;49.468;11.200;2023-02-07T01:31:15;23.60;;;10.87;;
8007;SDS011;4049;49.468;11.200;2023-02-07T01:33:42;19.30;;;9.97;;
8007;SDS011;4049;49.468;11.200;2023-02-07T01:36:10;21.73;;;10.97;;
8007;SDS011;4049;49.468;11.200;2023-02-07T01:38:39;24.07;;;11.27;;
8007;SDS011;4049;49.468;11.200;2023-02-07T01:41:08;21.63;;;10.90;;
8007;SDS011;4049;49.468;11.200;2023-02-07T01:43:51;21.17;;;11.13;;
8007;SDS011;4049;49.468;11.200;2023-02-07T01:46:22;21.23;;;11.10;;
8007;SDS011;4049;49.468;11.200;2023-02-07T01:48:50;23.80;;;11.50;;
8007;SDS011;4049;49.468;11.200;2023-02-07T01:51:19;25.33;;;12.00;;
8007;SDS011;4049;49.468;11.200;2023-02-07T01:53:46;17.67;;;10.57;;
8007;SDS011;4049;49.468;11.200;2023-02-07T01:56:15;21.73;;;11.73;;
8007;SDS011;4049;49.468;11.200;2023-02-07T01:58:42;23.23;;;11.70;;
8007;SDS011;4049;49.468;11.200;2023-02-07T02:01:14;22.40;;;11.83;;
8007;SDS011;4049;49.468;11.200;2023-02-07T02:03:46;22.53;;;10.53;;
8007;SDS011;4049;49.468;11.200;2023-02-07T02:06:14;20.77;;;10.43;;
8007;SDS011;4049;49.468;11.200;2023-02-07T02:08:41;21.73;;;10.97;;
8007;SDS011;4049;49.468;11.200;2023-02-07T02:11:17;23.93;;;11.57;;
8007;SDS011;4049;49.468;11.200;2023-02-07T02:13:57;24.57;;;12.10;;
8007;SDS011;4049;49.468;11.200;2023-02-07T02:16:32;20.40;;;11.13;;
8007;SDS011;4049;49.468;11.200;2023-02-07T02:19:09;22.43;;;11.87;;
8007;SDS011;4049;49.468;11.200;2023-02-07T02:22:11;24.33;;;11.70;;
8007;SDS011;4049;49.468;11.200;2023-02-07T02:25:04;25.93;;;11.97;;
8007;SDS011;4049;49.468;11.200;2023-02-07T02:31:28;21.90;;;11.53;;
8007;SDS011;4049;49.468;11.200;2023-02-07T02:34:20;20.10;;;11.43;;
8007;SDS011;4049;49.468;11.200;2023-02-07T02:36:55;21.73;;;11.37;;
8007;SDS011;4049;49.468;11.200;2023-02-07T02:39:29;18.67;;;10.90;;
8007;SDS011;4049;49.468;11.200;2023-02-07T02:42:00;23.93;;;11.20;;
8007;SDS011;4049;49.468;11.200;2023-02-07T02:44:34;21.23;;;10.93;;
8007;SDS011;4049;49.468;11.200;2023-02-07T02:47:07;18.40;;;10.33;;
8007;SDS011;4049;49.468;11.200;2023-02-07T02:49:37;22.83;;;11.27;;
8007;SDS011;4049;49.468;11.200;2023-02-07T02:52:06;21.30;;;10.77;;
8007;SDS011;4049;49.468;11.200;2023-02-07T02:54:34;24.50;;;11.30;;
8007;SDS011;4049;49.468;11.200;2023-02-07T02:57:08;22.53;;;10.73;;
8007;SDS011;4049;49.468;11.200;2023-02-07T02:59:59;23.50;;;10.87;;
8007;SDS011;4049;49.468;11.200;2023-02-07T03:02:37;23.57;;;10.60;;
8007;SDS011;4049;49.468;11.200;2023-02-07T03:05:17;22.40;;;11.60;;
8007;SDS011;4049;49.468;11.200;2023-02-07T03:07:54;22.63;;;11.00;;
8007;SDS011;4049;49.468;11.200;2023-02-07T03:10:30;21.33;;;10.73;;
8007;SDS011;4049;49.468;11.200;2023-02-07T03:13:05;24.37;;;10.90;;
8007;SDS011;4049;49.468;11.200;2023-02-07T03:15:43;19.77;;;10.10;;
8007;SDS011;4049;49.468;11.200;2023-02-07T03:18:17;21.50;;;9.97;;
8007;SDS011;4049;49.468;11.200;2023-02-07T03:20:53;20.07;;;9.60;;
8007;SDS011;4049;49.468;11.200;2023-02-07T03:23:24;19.77;;;9.37;;
8007;SDS011;4049;49.468;11.200;2023-02-07T03:25:53;16.10;;;9.37;;
8007;SDS011;4049;49.468;11.200;2023-02-07T03:28:21;17.17;;;10.43;;
8007;SDS011;4049;49.468;11.200;2023-02-07T03:30:50;20.87;;;10.27;;
8007;SDS011;4049;49.468;11.200;2023-02-07T03:33:20;20.63;;;10.13;;
8007;SDS011;4049;49.468;11.200;2023-02-07T03:35:52;23.20;;;10.97;;
8007;SDS011;4049;49.468;11.200;2023-02-07T03:38:25;22.83;;;10.10;;
8007;SDS011;4049;49.468;11.200;2023-02-07T03:40:52;20.10;;;10.50;;
8007;SDS011;4049;49.468;11.200;2023-02-07T03:43:27;23.73;;;10.50;;
8007;SDS011;4049;49.468;11.200;2023-02-07T03:45:55;20.43;;;9.93;;
8007;SDS011;4049;49.468;11.200;2023-02-07T03:48:22;18.97;;;10.17;;
8007;SDS011;4049;49.468;11.200;2023-02-07T03:50:50;22.83;;;11.00;;
8007;SDS011;4049;49.468;11.200;2023-02-07T03:53:18;18.90;;;10.07;;
8007;SDS011;4049;49.468;11.200;2023-02-07T03:55:45;21.27;;;10.93;;
8007;SDS011;4049;49.468;11.200;2023-02-07T03:58:12;21.60;;;10.63;;
8007;SDS011;4049;49.468;11.200;2023-02-07T04:00:39;19.70;;;10.10;;
8007;SDS011;4049;49.468;11.200;2023-02-07T04:03:06;22.13;;;10.77;;
8007;SDS011;4049;49.468;11.200;2023-02-07T04:05:33;22.37;;;10.40;;
8007;SDS011;4049;49.468;11.200;2023-02-07T04:07:59;19.50;;;10.53;;
8007;SDS011;4049;49.468;11.200;2023-02-07T04:10:28;21.23;;;10.70;;
8007;SDS011;4049;49.468;11.200;2023-02-07T04:12:54;30.40;;;13.00;;
8007;SDS011;4049;49.468;11.200;2023-02-07T04:15:21;22.57;;;11.67;;
8007;SDS011;4049;49.468;11.200;2023-02-07T04:17:48;22.47;;;10.90;;
8007;SDS011;4049;49.468;11.200;2023-02-07T04:20:15;22.20;;;11.03;;
8007;SDS011;4049;49.468;11.200;2023-02-07T04:22:43;21.70;;;10.10;;
8007;SDS011;4049;49.468;11.200;2023-02-07T04:25:10;20.47;;;10.33;;
8007;SDS011;4049;49.468;11.200;2023-02-07T04:27:38;23.57;;;11.07;;
8007;SDS011;4049;49.468;11.200;2023-02-07T04:30:05;24.80;;;10.87;;
8007;SDS011;4049;49.468;11.200;2023-02-07T04:32:33;21.87;;;11.53;;
8007;SDS011;4049;49.468;11.200;2023-02-07T04:35:00;22.57;;;11.33;;
8007;SDS011;4049;49.468;11.200;2023-02-07T04:37:26;19.60;;;10.63;;
8007;SDS011;4049;49.468;11.200;2023-02-07T04:39:53;19.90;;;10.67;;
8007;SDS011;4049;49.468;11.200;2023-02-07T04:42:20;19.10;;;10.07;;
8007;SDS011;4049;49.468;11.200;2023-02-07T04:44:48;25.60;;;11.23;;
8007;SDS011;4049;49.468;11.200;2023-02-07T04:47:15;26.13;;;11.60;;
8007;SDS011;4049;49.468;11.200;2023-02-07T04:49:42;26.73;;;11.23;;
8007;SDS011;4049;49.468;11.200;2023-02-07T04:52:08;20.97;;;10.20;;
8007;SDS011;4049;49.468;11.200;2023-02-07T04:54:35;20.53;;;10.43;;
8007;SDS011;4049;49.468;11.200;2023-02-07T04:57:02;21.50;;;10.63;;
8007;SDS011;4049;49.468;11.200;2023-02-07T04:59:29;19.27;;;10.70;;
8007;SDS011;4049;49.468;11.200;2023-02-07T05:01:58;20.43;;;10.53;;
8007;SDS011;4049;49.468;11.200;2023-02-07T05:04:25;20.90;;;11.53;;
8007;SDS011;4049;49.468;11.200;2023-02-07T05:06:51;24.93;;;11.60;;
8007;SDS011;4049;49.468;11.200;2023-02-07T05:09:18;22.53;;;10.80;;
8007;SDS011;4049;49.468;11.200;2023-02-07T05:11:45;18.67;;;10.50;;
8007;SDS011;4049;49.468;11.200;2023-02-07T05:14:12;20.30;;;10.87;;
8007;SDS011;4049;49.468;11.200;2023-02-07T05:16:39;24.63;;;11.53;;
8007;SDS011;4049;49.468;11.200;2023-02-07T05:19:07;21.67;;;11.10;;
8007;SDS011;4049;49.468;11.200;2023-02-07T05:21:34;21.93;;;11.67;;
8007;SDS011;4049;49.468;11.200;2023-02-07T05:24:00;25.23;;;11.50;;
8007;SDS011;4049;49.468;11.200;2023-02-07T05:26:28;25.13;;;11.87;;
8007;SDS011;4049;49.468;11.200;2023-02-07T05:28:55;20.67;;;11.63;;
8007;SDS011;4049;49.468;11.200;2023-02-07T05:31:22;24.87;;;11.97;;
8007;SDS011;4049;49.468;11.200;2023-02-07T05:34:10;23.07;;;12.30;;
8007;SDS011;4049;49.468;11.200;2023-02-07T05:36:36;23.27;;;12.43;;
8007;SDS011;4049;49.468;11.200;2023-02-07T05:39:03;25.60;;;11.60;;
8007;SDS011;4049;49.468;11.200;2023-02-07T05:41:29;28.03;;;13.53;;
8007;SDS011;4049;49.468;11.200;2023-02-07T05:43:56;27.67;;;12.80;;
8007;SDS011;4049;49.468;11.200;2023-02-07T05:46:23;25.13;;;11.80;;
8007;SDS011;4049;49.468;11.200;2023-02-07T05:48:50;24.77;;;11.97;;
8007;SDS011;4049;49.468;11.200;2023-02-07T05:51:19;25.53;;;12.43;;
8007;SDS011;4049;49.468;11.200;2023-02-07T05:53:46;28.13;;;13.27;;
8007;SDS011;4049;49.468;11.200;2023-02-07T05:56:12;30.00;;;12.87;;
8007;SDS011;4049;49.468;11.200;2023-02-07T05:58:39;24.83;;;13.43;;
8007;SDS011;4049;49.468;11.200;2023-02-07T06:01:06;30.10;;;13.67;;
8007;SDS011;4049;49.468;11.200;2023-02-07T06:03:33;29.47;;;14.20;;
8007;SDS011;4049;49.468;11.200;2023-02-07T06:06:00;28.10;;;13.67;;
8007;SDS011;4049;49.468;11.200;2023-02-07T06:08:28;28.87;;;13.97;;
8007;SDS011;4049;49.468;11.200;2023-02-07T06:10:55;27.67;;;15.03;;
8007;SDS011;4049;49.468;11.200;2023-02-07T06:13:21;27.93;;;14.70;;
8007;SDS011;4049;49.468;11.200;2023-02-07T06:15:48;32.20;;;14.87;;
8007;SDS011;4049;49.468;11.200;2023-02-07T06:18:15;26.80;;;14.33;;
8007;SDS011;4049;49.468;11.200;2023-02-07T06:20:42;32.30;;;14.77;;
8007;SDS011;4049;49.468;11.200;2023-02-07T06:23:09;32.57;;;15.67;;
8007;SDS011;4049;49.468;11.200;2023-02-07T06:25:37;30.90;;;15.23;;
8007;SDS011;4049;49.468;11.200;2023-02-07T06:28:04;28.20;;;14.60;;
8007;SDS011;4049;49.468;11.200;2023-02-07T06:30:31;40.27;;;16.93;;
8007;SDS011;4049;49.468;11.200;2023-02-07T06:32:57;35.03;;;16.80;;
8007;SDS011;4049;49.468;11.200;2023-02-07T06:35:24;33.80;;;16.03;;
8007;SDS011;4049;49.468;11.200;2023-02-07T06:37:51;31.73;;;16.07;;
8007;SDS011;4049;49.468;11.200;2023-02-07T06:40:18;33.27;;;15.37;;
8007;SDS011;4049;49.468;11.200;2023-02-07T06:42:46;35.00;;;16.87;;
8007;SDS011;4049;49.468;11.200;2023-02-07T06:45:13;35.97;;;17.63;;
8007;SDS011;4049;49.468;11.200;2023-02-07T06:47:40;39.13;;;17.20;;
8007;SDS011;4049;49.468;11.200;2023-02-07T06:50:07;28.60;;;14.53;;
8007;SDS011;4049;49.468;11.200;2023-02-07T06:52:34;40.77;;;20.57;;
8007;SDS011;4049;49.468;11.200;2023-02-07T06:55:01;32.20;;;15.53;;
8007;SDS011;4049;49.468;11.200;2023-02-07T06:57:28;33.00;;;16.33;;
8007;SDS011;4049;49.468;11.200;2023-02-07T06:59:56;31.30;;;15.27;;
8007;SDS011;4049;49.468;11.200;2023-02-07T07:02:23;32.57;;;16.07;;
8007;SDS011;4049;49.468;11.200;2023-02-07T07:04:49;33.63;;;16.40;;
8007;SDS011;4049;49.468;11.200;2023-02-07T07:07:16;32.13;;;15.17;;
8007;SDS011;4049;49.468;11.200;2023-02-07T07:09:43;33.33;;;15.20;;
8007;SDS011;4049;49.468;11.200;2023-02-07T07:12:10;28.97;;;15.13;;
8007;SDS011;4049;49.468;11.200;2023-02-07T07:14:37;32.77;;;15.40;;
8007;SDS011;4049;49.468;11.200;2023-02-07T07:17:05;29.87;;;15.27;;
8007;SDS011;4049;49.468;11.200;2023-02-07T07:19:32;28.50;;;15.20;;
8007;SDS011;4049;49.468;11.200;2023-02-07T07:21:58;33.23;;;16.70;;
8007;SDS011;4049;49.468;11.200;2023-02-07T07:24:25;29.53;;;15.63;;
8007;SDS011;4049;49.468;11.200;2023-02-07T07:26:52;33.03;;;15.47;;
8007;SDS011;4049;49.468;11.200;2023-02-07T07:29:20;32.90;;;15.57;;
8007;SDS011;4049;49.468;11.200;2023-02-07T07:31:47;27.70;;;15.23;;
8007;SDS011;4049;49.468;11.200;2023-02-07T07:34:15;31.97;;;15.40;;
8007;SDS011;4049;49.468;11.200;2023-02-07T07:36:42;34.83;;;15.80;;
8007;SDS011;4049;49.468;11.200;2023-02-07T07:39:09;32.50;;;15.53;;
8007;SDS011;4049;49.468;11.200;2023-02-07T07:41:37;32.47;;;15.40;;
8007;SDS011;4049;49.468;11.200;2023-02-07T07:44:04;29.33;;;15.07;;
8007;SDS011;4049;49.468;11.200;2023-02-07T07:46:31;31.67;;;15.03;;
8007;SDS011;4049;49.468;11.200;2023-02-07T07:48:58;34.77;;;15.57;;
8007;SDS011;4049;49.468;11.200;2023-02-07T07:51:26;32.93;;;15.33;;
8007;SDS011;4049;49.468;11.200;2023-02-07T07:53:53;30.23;;;14.73;;
8007;SDS011;4049;49.468;11.200;2023-02-07T07:56:23;33.43;;;15.13;;
8007;SDS011;4049;49.468;11.200;2023-02-07T07:58:49;32.20;;;15.50;;
8007;SDS011;4049;49.468;11.200;2023-02-07T08:01:16;40.90;;;18.37;;
8007;SDS011;4049;49.468;11.200;2023-02-07T08:03:43;32.23;;;15.90;;
8007;SDS011;4049;49.468;11.200;2023-02-07T08:06:10;26.27;;;15.17;;
8007;SDS011;4049;49.468;11.200;2023-02-07T08:08:38;28.80;;;15.80;;
8007;SDS011;4049;49.468;11.200;2023-02-07T08:11:06;32.77;;;15.67;;
8007;SDS011;4049;49.468;11.200;2023-02-07T08:13:34;30.87;;;14.83;;
8007;SDS011;4049;49.468;11.200;2023-02-07T08:16:02;36.37;;;15.17;;
8007;SDS011;4049;49.468;11.200;2023-02-07T08:18:32;31.20;;;15.17;;
8007;SDS011;4049;49.468;11.200;2023-02-07T08:20:59;31.97;;;14.87;;
8007;SDS011;4049;49.468;11.200;2023-02-07T08:23:27;29.43;;;15.83;;
8007;SDS011;4049;49.468;11.200;2023-02-07T08:25:55;36.03;;;15.43;;
8007;SDS011;4049;49.468;11.200;2023-02-07T08:28:22;34.97;;;17.37;;
8007;SDS011;4049;49.468;11.200;2023-02-07T08:30:48;31.20;;;16.43;;
8007;SDS011;4049;49.468;11.200;2023-02-07T08:33:17;34.13;;;16.57;;
8007;SDS011;4049;49.468;11.200;2023-02-07T08:35:44;34.97;;;17.20;;
8007;SDS011;4049;49.468;11.200;2023-02-07T08:38:11;33.30;;;16.50;;
8007;SDS011;4049;49.468;11.200;2023-02-07T08:40:38;31.63;;;16.53;;
8007;SDS011;4049;49.468;11.200;2023-02-07T08:43:06;39.40;;;17.63;;
8007;SDS011;4049;49.468;11.200;2023-02-07T08:45:36;31.47;;;14.77;;
8007;SDS011;4049;49.468;11.200;2023-02-07T08:48:03;31.57;;;15.57;;
8007;SDS011;4049;49.468;11.200;2023-02-07T08:50:30;31.00;;;14.83;;
8007;SDS011;4049;49.468;11.200;2023-02-07T08:52:57;30.83;;;15.30;;
8007;SDS011;4049;49.468;11.200;2023-02-07T08:55:24;30.10;;;14.87;;
8007;SDS011;4049;49.468;11.200;2023-02-07T08:57:51;29.07;;;15.07;;
8007;SDS011;4049;49.468;11.200;2023-02-07T09:00:19;32.43;;;15.40;;
8007;SDS011;4049;49.468;11.200;2023-02-07T09:02:47;32.87;;;14.30;;
8007;SDS011;4049;49.468;11.200;2023-02-07T09:05:14;29.30;;;14.10;;
8007;SDS011;4049;49.468;11.200;2023-02-07T09:07:41;31.53;;;13.77;;
8007;SDS011;4049;49.468;11.200;2023-02-07T09:10:08;28.77;;;13.33;;
8007;SDS011;4049;49.468;11.200;2023-02-07T09:12:35;27.47;;;13.90;;
8007;SDS011;4049;49.468;11.200;2023-02-07T09:15:03;28.87;;;14.57;;
8007;SDS011;4049;49.468;11.200;2023-02-07T09:17:32;32.00;;;14.27;;
8007;SDS011;4049;49.468;11.200;2023-02-07T09:19:59;29.20;;;13.70;;
8007;SDS011;4049;49.468;11.200;2023-02-07T09:22:26;30.57;;;15.07;;
8007;SDS011;4049;49.468;11.200;2023-02-07T09:24:53;24.70;;;12.60;;
8007;SDS011;4049;49.468;11.200;2023-02-07T09:27:20;27.47;;;14.53;;
8007;SDS011;4049;49.468;11.200;2023-02-07T09:29:47;24.30;;;12.47;;
8007;SDS011;4049;49.468;11.200;2023-02-07T09:32:14;28.43;;;13.67;;
8007;SDS011;4049;49.468;11.200;2023-02-07T09:34:42;32.63;;;14.53;;
8007;SDS011;4049;49.468;11.200;2023-02-07T09:37:10;23.40;;;13.07;;
8007;SDS011;4049;49.468;11.200;2023-02-07T09:39:37;23.33;;;12.23;;
8007;SDS011;4049;49.468;11.200;2023-02-07T09:42:07;26.23;;;12.03;;
8007;SDS011;4049;49.468;11.200;2023-02-07T09:44:47;24.47;;;12.47;;
8007;SDS011;4049;49.468;11.200;2023-02-07T09:47:23;25.27;;;13.07;;
8007;SDS011;4049;49.468;11.200;2023-02-07T09:49:53;23.00;;;12.70;;
8007;SDS011;4049;49.468;11.200;2023-02-07T09:52:24;26.33;;;12.30;;
8007;SDS011;4049;49.468;11.200;2023-02-07T09:54:56;27.23;;;13.40;;
8007;SDS011;4049;49.468;11.200;2023-02-07T09:57:26;23.40;;;11.93;;
8007;SDS011;4049;49.468;11.200;2023-02-07T10:00:03;22.23;;;12.23;;
8007;SDS011;4049;49.468;11.200;2023-02-07T10:02:35;20.27;;;10.93;;
8007;SDS011;4049;49.468;11.200;2023-02-07T10:05:15;26.00;;;12.67;;
8007;SDS011;4049;49.468;11.200;2023-02-07T10:07:47;21.37;;;10.83;;
8007;SDS011;4049;49.468;11.200;2023-02-07T10:10:15;23.27;;;11.43;;
8007;SDS011;4049;49.468;11.200;2023-02-07T10:12:47;18.80;;;11.37;;
8007;SDS011;4049;49.468;11.200;2023-02-07T10:15:40;21.40;;;11.60;;
8007;SDS011;4049;49.468;11.200;2023-02-07T10:18:33;26.40;;;12.87;;
8007;SDS011;4049;49.468;11.200;2023-02-07T10:21:11;24.50;;;12.17;;
8007;SDS011;4049;49.468;11.200;2023-02-07T10:23:50;22.93;;;11.30;;
8007;SDS011;4049;49.468;11.200;2023-02-07T10:26:37;22.77;;;10.53;;
8007;SDS011;4049;49.468;11.200;2023-02-07T10:29:24;21.40;;;11.10;;
8007;SDS011;4049;49.468;11.200;2023-02-07T10:32:13;20.03;;;11.13;;
8007;SDS011;4049;49.468;11.200;2023-02-07T10:34:44;24.70;;;13.27;;
8007;SDS011;4049;49.468;11.200;2023-02-07T10:37:16;24.23;;;13.10;;
8007;SDS011;4049;49.468;11.200;2023-02-07T10:39:47;21.33;;;10.50;;
8007;SDS011;4049;49.468;11.200;2023-02-07T10:42:20;16.87;;;9.43;;
8007;SDS011;4049;49.468;11.200;2023-02-07T10:44:48;21.93;;;10.83;;
8007;SDS011;4049;49.468;11.200;2023-02-07T10:47:15;19.20;;;10.20;;
8007;SDS011;4049;49.468;11.200;2023-02-07T10:49:43;18.73;;;9.87;;
8007;SDS011;4049;49.468;11.200;2023-02-07T10:52:19;18.30;;;10.00;;
8007;SDS011;4049;49.468;11.200;2023-02-07T10:55:00;21.33;;;11.63;;
8007;SDS011;4049;49.468;11.200;2023-02-07T10:57:29;21.57;;;10.20;;
8007;SDS011;4049;49.468;11.200;2023-02-07T10:59:56;17.57;;;9.23;;
8007;SDS011;4049;49.468;11.200;2023-02-07T11:02:35;21.07;;;10.77;;
8007;SDS011;4049;49.468;11.200;2023-02-07T11:05:28;20.23;;;10.17;;
8007;SDS011;4049;49.468;11.200;2023-02-07T11:08:05;25.60;;;11.00;;
8007;SDS011;4049;49.468;11.200;2023-02-07T11:10:43;17.63;;;9.13;;
8007;SDS011;4049;49.468;11.200;2023-02-07T11:13:13;18.60;;;9.70;;
8007;SDS011;4049;49.468;11.200;2023-02-07T11:15:47;19.40;;;9.73;;
8007;SDS011;4049;49.468;11.200;2023-02-07T11:18:24;18.67;;;9.27;;
8007;SDS011;4049;49.468;11.200;2023-02-07T11:21:01;20.47;;;10.17;;
8007;SDS011;4049;49.468;11.200;2023-02-07T11:23:31;18.50;;;9.47;;
8007;SDS011;4049;49.468;11.200;2023-02-07T11:25:58;13.90;;;8.57;;
8007;SDS011;4049;49.468;11.200;2023-02-07T11:28:30;16.13;;;7.77;;
8007;SDS011;4049;49.468;11.200;2023-02-07T11:31:00;15.60;;;9.00;;
8007;SDS011;4049;49.468;11.200;2023-02-07T11:33:28;15.97;;;9.60;;
8007;SDS011;4049;49.468;11.200;2023-02-07T11:36:02;16.80;;;8.27;;
8007;SDS011;4049;49.468;11.200;2023-02-07T11:38:36;16.83;;;8.53;;
8007;SDS011;4049;49.468;11.200;2023-02-07T11:41:04;12.43;;;7.23;;
8007;SDS011;4049;49.468;11.200;2023-02-07T11:43:41;13.03;;;7.93;;
8007;SDS011;4049;49.468;11.200;2023-02-07T11:46:18;11.70;;;7.37;;
8007;SDS011;4049;49.468;11.200;2023-02-07T11:48:46;12.70;;;6.93;;
8007;SDS011;4049;49.468;11.200;2023-02-07T11:51:17;12.57;;;6.97;;
8007;SDS011;4049;49.468;11.200;2023-02-07T11:53:46;12.07;;;6.70;;
8007;SDS011;4049;49.468;11.200;2023-02-07T11:56:19;14.30;;;7.73;;
8007;SDS011;4049;49.468;11.200;2023-02-07T11:58:49;16.27;;;8.97;;
8007;SDS011;4049;49.468;11.200;2023-02-07T12:01:17;12.03;;;6.67;;
8007;SDS011;4049;49.468;11.200;2023-02-07T12:03:49;12.67;;;6.93;;
8007;SDS011;4049;49.468;11.200;2023-02-07T12:06:22;11.60;;;6.80;;
8007;SDS011;4049;49.468;11.200;2023-02-07T12:08:56;14.47;;;6.90;;
8007;SDS011;4049;49.468;11.200;2023-02-07T12:11:25;12.50;;;7.10;;
8007;SDS011;4049;49.468;11.200;2023-02-07T12:13:58;11.40;;;7.00;;
8007;SDS011;4049;49.468;11.200;2023-02-07T12:16:31;13.00;;;7.30;;
8007;SDS011;4049;49.468;11.200;2023-02-07T12:19:03;12.00;;;6.83;;
8007;SDS011;4049;49.468;11.200;2023-02-07T12:21:41;11.73;;;7.53;;
8007;SDS011;4049;49.468;11.200;2023-02-07T12:24:20;11.50;;;6.53;;
8007;SDS011;4049;49.468;11.200;2023-02-07T12:26:50;12.60;;;7.40;;
8007;SDS011;4049;49.468;11.200;2023-02-07T12:29:23;10.73;;;7.17;;
8007;SDS011;4049;49.468;11.200;2023-02-07T12:31:59;13.93;;;7.13;;
8007;SDS011;4049;49.468;11.200;2023-02-07T12:34:29;15.63;;;7.50;;
8007;SDS011;4049;49.468;11.200;2023-02-07T12:37:01;12.73;;;7.60;;
8007;SDS011;4049;49.468;11.200;2023-02-07T12:39:35;10.83;;;6.67;;
8007;SDS011;4049;49.468;11.200;2023-02-07T12:42:12;13.17;;;6.87;;
8007;SDS011;4049;49.468;11.200;2023-02-07T12:44:52;12.33;;;7.83;;
8007;SDS011;4049;49.468;11.200;2023-02-07T12:47:22;12.80;;;6.70;;
8007;SDS011;4049;49.468;11.200;2023-02-07T12:50:02;12.60;;;6.97;;
8007;SDS011;4049;49.468;11.200;2023-02-07T12:52:43;12.13;;;6.70;;
8007;SDS011;4049;49.468;11.200;2023-02-07T12:55:23;12.90;;;6.93;;
8007;SDS011;4049;49.468;11.200;2023-02-07T12:58:01;11.27;;;6.70;;
8007;SDS011;4049;49.468;11.200;2023-02-07T13:00:39;13.40;;;7.73;;
8007;SDS011;4049;49.468;11.200;2023-02-07T13:03:18;15.23;;;7.40;;
8007;SDS011;4049;49.468;11.200;2023-02-07T13:05:57;16.77;;;8.57;;
8007;SDS011;4049;49.468;11.200;2023-02-07T13:08:32;31.97;;;16.00;;
8007;SDS011;4049;49.468;11.200;2023-02-07T13:11:14;17.40;;;8.87;;
8007;SDS011;4049;49.468;11.200;2023-02-07T13:13:52;14.90;;;7.63;;
8007;SDS011;4049;49.468;11.200;2023-02-07T13:16:30;15.47;;;7.67;;
8007;SDS011;4049;49.468;11.200;2023-02-07T13:19:03;12.10;;;7.53;;
8007;SDS011;4049;49.468;11.200;2023-02-07T13:21:39;15.00;;;8.80;;
8007;SDS011;4049;49.468;11.200;2023-02-07T13:24:15;12.57;;;7.57;;
8007;SDS011;4049;49.468;11.200;2023-02-07T13:26:48;13.83;;;7.80;;
8007;SDS011;4049;49.468;11.200;2023-02-07T13:29:17;12.03;;;7.10;;
8007;SDS011;4049;49.468;11.200;2023-02-07T13:31:47;13.60;;;7.97;;
8007;SDS011;4049;49.468;11.200;2023-02-07T13:34:17;23.33;;;11.50;;
8007;SDS011;4049;49.468;11.200;2023-02-07T13:36:48;15.40;;;9.40;;
8007;SDS011;4049;49.468;11.200;2023-02-07T13:39:21;18.60;;;10.70;;
8007;SDS011;4049;49.468;11.200;2023-02-07T13:42:01;16.43;;;8.80;;
8007;SDS011;4049;49.468;11.200;2023-02-07T13:44:38;14.30;;;7.07;;
8007;SDS011;4049;49.468;11.200;2023-02-07T13:47:19;11.07;;;7.07;;
8007;SDS011;4049;49.468;11.200;2023-02-07T13:50:10;13.73;;;7.20;;
8007;SDS011;4049;49.468;11.200;2023-02-07T13:52:51;11.20;;;6.87;;
8007;SDS011;4049;49.468;11.200;2023-02-07T13:55:26;9.57;;;6.23;;
8007;SDS011;4049;49.468;11.200;2023-02-07T13:57:58;12.23;;;6.73;;
8007;SDS011;4049;49.468;11.200;2023-02-07T14:00:57;10.07;;;5.83;;
8007;SDS011;4049;49.468;11.200;2023-02-07T14:03:33;12.33;;;6.63;;
8007;SDS011;4049;49.468;11.200;2023-02-07T14:06:14;9.53;;;6.10;;
8007;SDS011;4049;49.468;11.200;2023-02-07T14:08:46;11.80;;;6.83;;
8007;SDS011;4049;49.468;11.200;2023-02-07T14:11:26;9.47;;;5.87;;
8007;SDS011;4049;49.468;11.200;2023-02-07T14:14:04;10.10;;;6.30;;
8007;SDS011;4049;49.468;11.200;2023-02-07T14:16:43;11.23;;;6.87;;
8007;SDS011;4049;49.468;11.200;2023-02-07T14:19:13;9.77;;;5.73;;
8007;SDS011;4049;49.468;11.200;2023-02-07T14:21:42;13.17;;;7.20;;
8007;SDS011;4049;49.468;11.200;2023-02-07T14:24:28;10.43;;;5.97;;
8007;SDS011;4049;49.468;11.200;2023-02-07T14:27:01;8.50;;;5.10;;
8007;SDS011;4049;49.468;11.200;2023-02-07T14:35:43;12.03;;;6.10;;
8007;SDS011;4049;49.468;11.200;2023-02-07T14:38:29;9.33;;;5.87;;
8007;SDS011;4049;49.468;11.200;2023-02-07T14:41:01;9.97;;;5.97;;
8007;SDS011;4049;49.468;11.200;2023-02-07T14:43:33;12.20;;;6.27;;
8007;SDS011;4049;49.468;11.200;2023-02-07T14:46:09;10.93;;;5.63;;
8007;SDS011;4049;49.468;11.200;2023-02-07T14:48:47;12.10;;;6.47;;
8007;SDS011;4049;49.468;11.200;2023-02-07T14:51:18;11.60;;;6.37;;
8007;SDS011;4049;49.468;11.200;2023-02-07T14:53:56;14.83;;;5.77;;
8007;SDS011;4049;49.468;11.200;2023-02-07T14:56:36;10.83;;;6.03;;
8007;SDS011;4049;49.468;11.200;2023-02-07T14:59:27;9.47;;;6.10;;
8007;SDS011;4049;49.468;11.200;2023-02-07T15:05:10;14.23;;;8.50;;
8007;SDS011;4049;49.468;11.200;2023-02-07T15:07:42;18.60;;;10.13;;
8007;SDS011;4049;49.468;11.200;2023-02-07T15:10:13;27.10;;;15.50;;
8007;SDS011;4049;49.468;11.200;2023-02-07T15:12:42;16.07;;;10.17;;